sensor_id;sensor_type;location;lat;lon;timestamp;P1;durP1;ratioP1;P2;durP2;ratioP2
36253;SDS011;22291;52.250;21.228;2022-09-01T00:01:16;3.65;;;1.77;;
36253;SDS011;22291;52.250;21.228;2022-09-01T00:03:45;4.62;;;1.70;;
36253;SDS011;22291;52.250;21.228;2022-09-01T00:06:16;2.55;;;1.40;;
36253;SDS011;22291;52.250;21.228;2022-09-01T00:08:45;2.92;;;1.55;;
36253;SDS011;22291;52.250;21.228;2022-09-01T00:11:11;2.75;;;1.12;;
36253;SDS011;22291;52.250;21.228;2022-09-01T00:13:37;4.30;;;1.22;;
36253;SDS011;22291;52.250;21.228;2022-09-01T00:16:04;3.30;;;1.50;;
36253;SDS011;22291;52.250;21.228;2022-09-01T00:18:31;2.65;;;1.30;;
36253;SDS011;22291;52.250;21.228;2022-09-01T00:20:59;1.55;;;1.40;;
36253;SDS011;22291;52.250;21.228;2022-09-01T00:23:26;2.27;;;1.70;;
36253;SDS011;22291;52.250;21.228;2022-09-01T00:25:53;2.10;;;1.20;;
36253;SDS011;22291;52.250;21.228;2022-09-01T00:28:19;3.47;;;1.30;;
36253;SDS011;22291;52.250;21.228;2022-09-01T00:30:45;1.70;;;1.40;;
36253;SDS011;22291;52.250;21.228;2022-09-01T00:33:13;1.95;;;1.60;;
36253;SDS011;22291;52.250;21.228;2022-09-01T00:35:39;1.30;;;1.20;;
36253;SDS011;22291;52.250;21.228;2022-09-01T00:38:05;1.72;;;1.42;;
36253;SDS011;22291;52.250;21.228;2022-09-01T00:40:31;1.37;;;1.27;;
36253;SDS011;22291;52.250;21.228;2022-09-01T00:42:59;2.02;;;1.62;;
36253;SDS011;22291;52.250;21.228;2022-09-01T00:45:25;3.85;;;2.30;;
36253;SDS011;22291;52.250;21.228;2022-09-01T00:47:51;2.15;;;1.60;;
36253;SDS011;22291;52.250;21.228;2022-09-01T00:50:18;3.12;;;1.57;;
36253;SDS011;22291;52.250;21.228;2022-09-01T00:52:47;3.15;;;1.75;;
36253;SDS011;22291;52.250;21.228;2022-09-01T00:55:17;3.17;;;2.12;;
36253;SDS011;22291;52.250;21.228;2022-09-01T00:57:54;2.65;;;1.50;;
36253;SDS011;22291;52.250;21.228;2022-09-01T01:00:24;3.05;;;1.40;;
36253;SDS011;22291;52.250;21.228;2022-09-01T01:02:53;2.05;;;1.65;;
36253;SDS011;22291;52.250;21.228;2022-09-01T01:05:28;3.27;;;1.87;;
36253;SDS011;22291;52.250;21.228;2022-09-01T01:07:59;4.25;;;1.42;;
36253;SDS011;22291;52.250;21.228;2022-09-01T01:10:30;3.80;;;1.20;;
36253;SDS011;22291;52.250;21.228;2022-09-01T01:13:01;3.60;;;1.32;;
36253;SDS011;22291;52.250;21.228;2022-09-01T01:15:37;2.90;;;1.70;;
36253;SDS011;22291;52.250;21.228;2022-09-01T01:18:06;2.95;;;1.87;;
36253;SDS011;22291;52.250;21.228;2022-09-01T01:21:01;3.42;;;1.75;;
36253;SDS011;22291;52.250;21.228;2022-09-01T01:24:00;2.50;;;1.50;;
36253;SDS011;22291;52.250;21.228;2022-09-01T01:26:37;2.83;;;1.57;;
36253;SDS011;22291;52.250;21.228;2022-09-01T01:29:04;3.15;;;1.22;;
36253;SDS011;22291;52.250;21.228;2022-09-01T01:31:31;2.05;;;1.60;;
36253;SDS011;22291;52.250;21.228;2022-09-01T01:33:57;3.77;;;1.57;;
36253;SDS011;22291;52.250;21.228;2022-09-01T01:39:00;1.70;;;1.60;;
36253;SDS011;22291;52.250;21.228;2022-09-01T01:41:34;2.37;;;1.67;;
36253;SDS011;22291;52.250;21.228;2022-09-01T01:44:05;3.30;;;1.50;;
36253;SDS011;22291;52.250;21.228;2022-09-01T01:46:33;2.22;;;1.60;;
36253;SDS011;22291;52.250;21.228;2022-09-01T01:49:02;1.70;;;1.50;;
36253;SDS011;22291;52.250;21.228;2022-09-01T01:51:29;2.95;;;1.70;;
36253;SDS011;22291;52.250;21.228;2022-09-01T01:53:57;1.70;;;1.40;;
36253;SDS011;22291;52.250;21.228;2022-09-01T01:56:26;2.60;;;1.25;;
36253;SDS011;22291;52.250;21.228;2022-09-01T01:58:53;2.77;;;1.65;;
36253;SDS011;22291;52.250;21.228;2022-09-01T02:01:22;1.60;;;1.50;;
36253;SDS011;22291;52.250;21.228;2022-09-01T02:03:54;2.65;;;1.40;;
36253;SDS011;22291;52.250;21.228;2022-09-01T02:06:22;3.33;;;1.40;;
36253;SDS011;22291;52.250;21.228;2022-09-01T02:08:51;2.20;;;2.00;;
36253;SDS011;22291;52.250;21.228;2022-09-01T02:11:23;2.95;;;1.50;;
36253;SDS011;22291;52.250;21.228;2022-09-01T02:13:51;2.15;;;1.47;;
36253;SDS011;22291;52.250;21.228;2022-09-01T02:16:21;2.25;;;1.65;;
36253;SDS011;22291;52.250;21.228;2022-09-01T02:18:51;4.17;;;1.37;;
36253;SDS011;22291;52.250;21.228;2022-09-01T02:21:21;2.05;;;1.47;;
36253;SDS011;22291;52.250;21.228;2022-09-01T02:23:53;2.33;;;1.42;;
36253;SDS011;22291;52.250;21.228;2022-09-01T02:26:31;2.45;;;1.40;;
36253;SDS011;22291;52.250;21.228;2022-09-01T02:29:02;3.67;;;1.95;;
36253;SDS011;22291;52.250;21.228;2022-09-01T02:31:34;7.53;;;1.70;;
36253;SDS011;22291;52.250;21.228;2022-09-01T02:34:04;4.17;;;1.60;;
36253;SDS011;22291;52.250;21.228;2022-09-01T02:36:34;2.90;;;1.60;;
36253;SDS011;22291;52.250;21.228;2022-09-01T02:39:02;11.12;;;2.20;;
36253;SDS011;22291;52.250;21.228;2022-09-01T02:41:28;2.37;;;1.40;;
36253;SDS011;22291;52.250;21.228;2022-09-01T02:43:56;3.98;;;1.50;;
36253;SDS011;22291;52.250;21.228;2022-09-01T02:46:24;3.35;;;1.52;;
36253;SDS011;22291;52.250;21.228;2022-09-01T02:48:51;1.95;;;1.55;;
36253;SDS011;22291;52.250;21.228;2022-09-01T02:51:19;5.90;;;1.30;;
36253;SDS011;22291;52.250;21.228;2022-09-01T02:53:51;1.87;;;1.37;;
36253;SDS011;22291;52.250;21.228;2022-09-01T02:56:19;4.90;;;1.52;;
36253;SDS011;22291;52.250;21.228;2022-09-01T02:58:48;3.35;;;1.47;;
36253;SDS011;22291;52.250;21.228;2022-09-01T03:01:23;4.60;;;1.72;;
36253;SDS011;22291;52.250;21.228;2022-09-01T03:03:50;1.80;;;1.55;;
36253;SDS011;22291;52.250;21.228;2022-09-01T03:06:20;2.30;;;1.65;;
36253;SDS011;22291;52.250;21.228;2022-09-01T03:08:49;8.35;;;1.70;;
36253;SDS011;22291;52.250;21.228;2022-09-01T03:13:44;2.42;;;1.55;;
36253;SDS011;22291;52.250;21.228;2022-09-01T03:16:11;2.22;;;1.60;;
36253;SDS011;22291;52.250;21.228;2022-09-01T03:18:37;5.12;;;1.72;;
36253;SDS011;22291;52.250;21.228;2022-09-01T03:21:05;3.30;;;1.80;;
36253;SDS011;22291;52.250;21.228;2022-09-01T03:23:33;5.20;;;1.67;;
36253;SDS011;22291;52.250;21.228;2022-09-01T03:26:00;3.08;;;2.00;;
36253;SDS011;22291;52.250;21.228;2022-09-01T03:28:27;2.22;;;1.55;;
36253;SDS011;22291;52.250;21.228;2022-09-01T03:30:55;6.03;;;2.02;;
36253;SDS011;22291;52.250;21.228;2022-09-01T03:33:23;3.20;;;1.82;;
36253;SDS011;22291;52.250;21.228;2022-09-01T03:35:54;2.58;;;1.67;;
36253;SDS011;22291;52.250;21.228;2022-09-01T03:38:20;6.17;;;1.90;;
36253;SDS011;22291;52.250;21.228;2022-09-01T03:40:49;2.80;;;1.60;;
36253;SDS011;22291;52.250;21.228;2022-09-01T03:43:23;4.25;;;2.10;;
36253;SDS011;22291;52.250;21.228;2022-09-01T03:45:52;2.60;;;1.93;;
36253;SDS011;22291;52.250;21.228;2022-09-01T03:48:23;2.90;;;2.08;;
36253;SDS011;22291;52.250;21.228;2022-09-01T03:50:51;3.00;;;1.65;;
36253;SDS011;22291;52.250;21.228;2022-09-01T03:53:18;2.20;;;1.62;;
36253;SDS011;22291;52.250;21.228;2022-09-01T03:55:48;4.28;;;1.90;;
36253;SDS011;22291;52.250;21.228;2022-09-01T03:58:15;2.42;;;1.67;;
36253;SDS011;22291;52.250;21.228;2022-09-01T04:00:45;1.72;;;1.60;;
36253;SDS011;22291;52.250;21.228;2022-09-01T04:03:16;2.70;;;1.72;;
36253;SDS011;22291;52.250;21.228;2022-09-01T04:05:45;2.72;;;1.87;;
36253;SDS011;22291;52.250;21.228;2022-09-01T04:08:12;2.08;;;1.57;;
36253;SDS011;22291;52.250;21.228;2022-09-01T04:10:43;2.92;;;1.50;;
36253;SDS011;22291;52.250;21.228;2022-09-01T04:13:19;1.82;;;1.70;;
36253;SDS011;22291;52.250;21.228;2022-09-01T04:15:54;2.80;;;1.80;;
36253;SDS011;22291;52.250;21.228;2022-09-01T04:18:23;2.80;;;1.90;;
36253;SDS011;22291;52.250;21.228;2022-09-01T04:20:52;2.12;;;1.70;;
36253;SDS011;22291;52.250;21.228;2022-09-01T04:23:23;4.95;;;2.47;;
36253;SDS011;22291;52.250;21.228;2022-09-01T04:26:00;4.17;;;2.20;;
36253;SDS011;22291;52.250;21.228;2022-09-01T04:28:39;3.40;;;1.72;;
36253;SDS011;22291;52.250;21.228;2022-09-01T04:31:11;3.77;;;1.70;;
36253;SDS011;22291;52.250;21.228;2022-09-01T04:33:44;2.80;;;1.55;;
36253;SDS011;22291;52.250;21.228;2022-09-01T04:36:18;2.95;;;1.87;;
36253;SDS011;22291;52.250;21.228;2022-09-01T04:38:53;1.82;;;1.70;;
36253;SDS011;22291;52.250;21.228;2022-09-01T04:41:24;4.85;;;2.17;;
36253;SDS011;22291;52.250;21.228;2022-09-01T04:43:55;6.85;;;2.02;;
36253;SDS011;22291;52.250;21.228;2022-09-01T04:46:26;5.33;;;2.10;;
36253;SDS011;22291;52.250;21.228;2022-09-01T04:48:54;2.17;;;1.98;;
36253;SDS011;22291;52.250;21.228;2022-09-01T04:51:22;6.33;;;2.15;;
36253;SDS011;22291;52.250;21.228;2022-09-01T04:56:18;3.42;;;2.22;;
36253;SDS011;22291;52.250;21.228;2022-09-01T04:58:48;4.37;;;1.90;;
36253;SDS011;22291;52.250;21.228;2022-09-01T05:01:21;3.83;;;2.08;;
36253;SDS011;22291;52.250;21.228;2022-09-01T05:03:47;4.92;;;2.40;;
36253;SDS011;22291;52.250;21.228;2022-09-01T05:06:18;9.63;;;2.27;;
36253;SDS011;22291;52.250;21.228;2022-09-01T05:08:44;6.17;;;2.60;;
36253;SDS011;22291;52.250;21.228;2022-09-01T05:11:11;7.33;;;2.20;;
36253;SDS011;22291;52.250;21.228;2022-09-01T05:13:41;9.13;;;2.35;;
36253;SDS011;22291;52.250;21.228;2022-09-01T05:16:10;8.75;;;3.42;;
36253;SDS011;22291;52.250;21.228;2022-09-01T05:18:43;9.33;;;2.22;;
36253;SDS011;22291;52.250;21.228;2022-09-01T05:21:12;8.28;;;2.40;;
36253;SDS011;22291;52.250;21.228;2022-09-01T05:23:42;8.33;;;3.42;;
36253;SDS011;22291;52.250;21.228;2022-09-01T05:26:11;7.10;;;2.60;;
36253;SDS011;22291;52.250;21.228;2022-09-01T05:28:43;5.85;;;2.27;;
36253;SDS011;22291;52.250;21.228;2022-09-01T05:31:12;2.42;;;2.12;;
36253;SDS011;22291;52.250;21.228;2022-09-01T05:33:41;6.30;;;2.50;;
36253;SDS011;22291;52.250;21.228;2022-09-01T05:36:09;6.75;;;1.87;;
36253;SDS011;22291;52.250;21.228;2022-09-01T05:38:37;3.30;;;2.08;;
36253;SDS011;22291;52.250;21.228;2022-09-01T05:41:07;7.03;;;2.35;;
36253;SDS011;22291;52.250;21.228;2022-09-01T05:43:37;7.12;;;2.22;;
36253;SDS011;22291;52.250;21.228;2022-09-01T05:46:07;2.33;;;1.98;;
36253;SDS011;22291;52.250;21.228;2022-09-01T05:51:03;4.45;;;1.80;;
36253;SDS011;22291;52.250;21.228;2022-09-01T05:53:32;4.72;;;1.85;;
36253;SDS011;22291;52.250;21.228;2022-09-01T05:55:59;6.33;;;2.20;;
36253;SDS011;22291;52.250;21.228;2022-09-01T05:58:30;4.85;;;1.92;;
36253;SDS011;22291;52.250;21.228;2022-09-01T06:00:58;16.65;;;2.17;;
36253;SDS011;22291;52.250;21.228;2022-09-01T06:03:26;7.78;;;2.05;;
36253;SDS011;22291;52.250;21.228;2022-09-01T06:05:53;9.73;;;2.05;;
36253;SDS011;22291;52.250;21.228;2022-09-01T06:08:22;5.35;;;1.80;;
36253;SDS011;22291;52.250;21.228;2022-09-01T06:10:51;5.62;;;1.77;;
36253;SDS011;22291;52.250;21.228;2022-09-01T06:13:19;7.35;;;2.00;;
36253;SDS011;22291;52.250;21.228;2022-09-01T06:15:47;5.15;;;1.20;;
36253;SDS011;22291;52.250;21.228;2022-09-01T06:18:14;7.42;;;1.67;;
36253;SDS011;22291;52.250;21.228;2022-09-01T06:20:46;9.95;;;1.47;;
36253;SDS011;22291;52.250;21.228;2022-09-01T06:23:14;4.50;;;1.25;;
36253;SDS011;22291;52.250;21.228;2022-09-01T06:25:44;7.70;;;1.50;;
36253;SDS011;22291;52.250;21.228;2022-09-01T06:28:15;8.23;;;1.92;;
36253;SDS011;22291;52.250;21.228;2022-09-01T06:30:45;10.72;;;1.37;;
36253;SDS011;22291;52.250;21.228;2022-09-01T06:33:13;3.52;;;1.20;;
36253;SDS011;22291;52.250;21.228;2022-09-01T06:35:40;7.03;;;1.37;;
36253;SDS011;22291;52.250;21.228;2022-09-01T06:38:10;4.53;;;0.90;;
36253;SDS011;22291;52.250;21.228;2022-09-01T06:40:38;7.25;;;1.17;;
36253;SDS011;22291;52.250;21.228;2022-09-01T06:43:07;5.70;;;1.17;;
36253;SDS011;22291;52.250;21.228;2022-09-01T06:45:43;6.50;;;1.12;;
36253;SDS011;22291;52.250;21.228;2022-09-01T06:48:16;5.80;;;1.10;;
36253;SDS011;22291;52.250;21.228;2022-09-01T06:50:42;4.17;;;0.62;;
36253;SDS011;22291;52.250;21.228;2022-09-01T06:53:11;3.83;;;1.00;;
36253;SDS011;22291;52.250;21.228;2022-09-01T06:55:39;3.12;;;0.80;;
36253;SDS011;22291;52.250;21.228;2022-09-01T06:58:06;5.70;;;0.93;;
36253;SDS011;22291;52.250;21.228;2022-09-01T07:00:36;2.98;;;0.62;;
36253;SDS011;22291;52.250;21.228;2022-09-01T07:03:12;2.85;;;0.60;;
36253;SDS011;22291;52.250;21.228;2022-09-01T07:05:39;13.15;;;0.90;;
36253;SDS011;22291;52.250;21.228;2022-09-01T07:08:09;4.33;;;0.70;;
36253;SDS011;22291;52.250;21.228;2022-09-01T07:10:42;4.22;;;0.80;;
36253;SDS011;22291;52.250;21.228;2022-09-01T07:13:17;3.85;;;1.00;;
36253;SDS011;22291;52.250;21.228;2022-09-01T07:15:50;4.00;;;0.80;;
36253;SDS011;22291;52.250;21.228;2022-09-01T07:18:22;4.12;;;0.82;;
36253;SDS011;22291;52.250;21.228;2022-09-01T07:20:50;3.17;;;0.85;;
36253;SDS011;22291;52.250;21.228;2022-09-01T07:23:18;1.82;;;0.60;;
36253;SDS011;22291;52.250;21.228;2022-09-01T07:25:46;3.90;;;1.10;;
36253;SDS011;22291;52.250;21.228;2022-09-01T07:28:16;6.72;;;1.00;;
36253;SDS011;22291;52.250;21.228;2022-09-01T07:30:46;6.70;;;1.20;;
36253;SDS011;22291;52.250;21.228;2022-09-01T07:33:15;2.80;;;0.75;;
36253;SDS011;22291;52.250;21.228;2022-09-01T07:35:46;2.58;;;1.07;;
36253;SDS011;22291;52.250;21.228;2022-09-01T07:38:14;3.37;;;0.80;;
36253;SDS011;22291;52.250;21.228;2022-09-01T07:40:42;3.70;;;0.80;;
36253;SDS011;22291;52.250;21.228;2022-09-01T07:43:16;2.37;;;0.75;;
36253;SDS011;22291;52.250;21.228;2022-09-01T07:45:50;2.00;;;0.60;;
36253;SDS011;22291;52.250;21.228;2022-09-01T07:48:22;2.55;;;1.10;;
36253;SDS011;22291;52.250;21.228;2022-09-01T07:50:51;1.47;;;1.00;;
36253;SDS011;22291;52.250;21.228;2022-09-01T07:53:26;1.17;;;0.50;;
36253;SDS011;22291;52.250;21.228;2022-09-01T07:55:53;4.72;;;0.80;;
36253;SDS011;22291;52.250;21.228;2022-09-01T07:58:23;2.12;;;0.55;;
36253;SDS011;22291;52.250;21.228;2022-09-01T08:00:52;2.65;;;0.70;;
36253;SDS011;22291;52.250;21.228;2022-09-01T08:03:22;3.45;;;0.47;;
36253;SDS011;22291;52.250;21.228;2022-09-01T08:05:50;1.05;;;0.40;;
36253;SDS011;22291;52.250;21.228;2022-09-01T08:08:19;1.25;;;0.53;;
36253;SDS011;22291;52.250;21.228;2022-09-01T08:10:46;2.77;;;0.70;;
36253;SDS011;22291;52.250;21.228;2022-09-01T08:13:13;1.98;;;0.50;;
36253;SDS011;22291;52.250;21.228;2022-09-01T08:15:41;2.50;;;0.95;;
36253;SDS011;22291;52.250;21.228;2022-09-01T08:18:08;5.15;;;2.65;;
36253;SDS011;22291;52.250;21.228;2022-09-01T08:20:36;1.55;;;0.60;;
36253;SDS011;22291;52.250;21.228;2022-09-01T08:23:06;1.85;;;0.78;;
36253;SDS011;22291;52.250;21.228;2022-09-01T08:25:35;3.80;;;1.30;;
36253;SDS011;22291;52.250;21.228;2022-09-01T08:28:02;1.22;;;0.70;;
36253;SDS011;22291;52.250;21.228;2022-09-01T08:30:30;3.47;;;0.57;;
36253;SDS011;22291;52.250;21.228;2022-09-01T08:32:57;2.45;;;1.55;;
36253;SDS011;22291;52.250;21.228;2022-09-01T08:35:26;1.65;;;0.42;;
36253;SDS011;22291;52.250;21.228;2022-09-01T08:37:54;6.08;;;0.50;;
36253;SDS011;22291;52.250;21.228;2022-09-01T08:40:22;0.40;;;0.40;;
36253;SDS011;22291;52.250;21.228;2022-09-01T08:42:59;2.25;;;0.80;;
36253;SDS011;22291;52.250;21.228;2022-09-01T08:45:36;1.72;;;1.02;;
36253;SDS011;22291;52.250;21.228;2022-09-01T08:48:26;2.40;;;0.80;;
36253;SDS011;22291;52.250;21.228;2022-09-01T08:54:17;5.00;;;0.95;;
36253;SDS011;22291;52.250;21.228;2022-09-01T08:57:01;3.80;;;0.78;;
36253;SDS011;22291;52.250;21.228;2022-09-01T08:59:31;3.60;;;0.57;;
36253;SDS011;22291;52.250;21.228;2022-09-01T09:05:07;0.45;;;0.45;;
36253;SDS011;22291;52.250;21.228;2022-09-01T09:14:01;2.15;;;0.40;;
36253;SDS011;22291;52.250;21.228;2022-09-01T09:16:55;0.30;;;0.30;;
36253;SDS011;22291;52.250;21.228;2022-09-01T09:21:57;3.40;;;0.40;;
36253;SDS011;22291;52.250;21.228;2022-09-01T09:24:30;1.22;;;0.70;;
36253;SDS011;22291;52.250;21.228;2022-09-01T09:27:21;0.85;;;0.35;;
36253;SDS011;22291;52.250;21.228;2022-09-01T09:29:53;0.30;;;0.17;;
36253;SDS011;22291;52.250;21.228;2022-09-01T09:33:00;1.15;;;0.70;;
36253;SDS011;22291;52.250;21.228;2022-09-01T09:35:33;1.07;;;0.40;;
36253;SDS011;22291;52.250;21.228;2022-09-01T09:41:03;2.30;;;0.40;;
36253;SDS011;22291;52.250;21.228;2022-09-01T09:43:36;0.93;;;0.57;;
36253;SDS011;22291;52.250;21.228;2022-09-01T09:46:27;2.12;;;0.47;;
36253;SDS011;22291;52.250;21.228;2022-09-01T09:49:07;2.22;;;0.30;;
36253;SDS011;22291;52.250;21.228;2022-09-01T09:52:11;2.65;;;0.53;;
36253;SDS011;22291;52.250;21.228;2022-09-01T09:54:41;0.20;;;0.13;;
36253;SDS011;22291;52.250;21.228;2022-09-01T09:57:30;0.10;;;0.10;;
36253;SDS011;22291;52.250;21.228;2022-09-01T10:00:01;0.75;;;0.28;;
36253;SDS011;22291;52.250;21.228;2022-09-01T10:02:36;0.53;;;0.20;;
36253;SDS011;22291;52.250;21.228;2022-09-01T10:11:07;1.40;;;0.85;;
36253;SDS011;22291;52.250;21.228;2022-09-01T10:13:33;0.62;;;0.30;;
36253;SDS011;22291;52.250;21.228;2022-09-01T10:16:02;0.40;;;0.20;;
36253;SDS011;22291;52.250;21.228;2022-09-01T10:18:37;0.30;;;0.30;;
36253;SDS011;22291;52.250;21.228;2022-09-01T10:21:14;1.60;;;0.37;;
36253;SDS011;22291;52.250;21.228;2022-09-01T10:23:46;0.65;;;0.23;;
36253;SDS011;22291;52.250;21.228;2022-09-01T10:26:23;0.62;;;0.40;;
36253;SDS011;22291;52.250;21.228;2022-09-01T10:29:11;1.77;;;0.20;;
36253;SDS011;22291;52.250;21.228;2022-09-01T10:31:38;2.47;;;0.30;;
36253;SDS011;22291;52.250;21.228;2022-09-01T10:34:05;0.55;;;0.30;;
36253;SDS011;22291;52.250;21.228;2022-09-01T10:36:38;2.17;;;0.30;;
36253;SDS011;22291;52.250;21.228;2022-09-01T10:39:10;0.75;;;0.42;;
36253;SDS011;22291;52.250;21.228;2022-09-01T10:44:27;1.35;;;0.40;;
36253;SDS011;22291;52.250;21.228;2022-09-01T10:47:02;3.25;;;0.23;;
36253;SDS011;22291;52.250;21.228;2022-09-01T11:00:48;0.23;;;0.20;;
36253;SDS011;22291;52.250;21.228;2022-09-01T11:06:02;1.02;;;0.40;;
36253;SDS011;22291;52.250;21.228;2022-09-01T11:14:20;1.95;;;0.40;;
36253;SDS011;22291;52.250;21.228;2022-09-01T11:22:30;0.25;;;0.20;;
36253;SDS011;22291;52.250;21.228;2022-09-01T11:25:12;1.87;;;0.33;;
36253;SDS011;22291;52.250;21.228;2022-09-01T11:28:03;1.07;;;0.30;;
36253;SDS011;22291;52.250;21.228;2022-09-01T11:30:45;1.00;;;0.45;;
36253;SDS011;22291;52.250;21.228;2022-09-01T11:36:32;1.17;;;0.30;;
36253;SDS011;22291;52.250;21.228;2022-09-01T11:39:23;2.65;;;0.50;;
36253;SDS011;22291;52.250;21.228;2022-09-01T11:47:27;0.93;;;0.35;;
36253;SDS011;22291;52.250;21.228;2022-09-01T11:49:55;2.27;;;0.60;;
36253;SDS011;22291;52.250;21.228;2022-09-01T11:52:30;1.07;;;0.40;;
36253;SDS011;22291;52.250;21.228;2022-09-01T11:55:02;2.42;;;0.60;;
36253;SDS011;22291;52.250;21.228;2022-09-01T11:57:35;3.42;;;0.50;;
36253;SDS011;22291;52.250;21.228;2022-09-01T12:00:10;2.98;;;1.52;;
36253;SDS011;22291;52.250;21.228;2022-09-01T12:02:50;0.60;;;0.30;;
36253;SDS011;22291;52.250;21.228;2022-09-01T12:05:23;1.45;;;0.65;;
36253;SDS011;22291;52.250;21.228;2022-09-01T12:07:59;0.75;;;0.30;;
36253;SDS011;22291;52.250;21.228;2022-09-01T12:10:32;1.75;;;0.85;;
36253;SDS011;22291;52.250;21.228;2022-09-01T12:15:40;1.55;;;0.40;;
36253;SDS011;22291;52.250;21.228;2022-09-01T12:20:47;0.53;;;0.30;;
36253;SDS011;22291;52.250;21.228;2022-09-01T12:23:23;2.40;;;0.40;;
36253;SDS011;22291;52.250;21.228;2022-09-01T12:26:06;1.82;;;0.40;;
36253;SDS011;22291;52.250;21.228;2022-09-01T12:28:36;2.62;;;0.30;;
36253;SDS011;22291;52.250;21.228;2022-09-01T12:31:06;2.87;;;0.57;;
36253;SDS011;22291;52.250;21.228;2022-09-01T12:33:41;3.45;;;0.40;;
36253;SDS011;22291;52.250;21.228;2022-09-01T12:38:41;1.02;;;0.50;;
36253;SDS011;22291;52.250;21.228;2022-09-01T12:47:06;1.05;;;0.62;;
36253;SDS011;22291;52.250;21.228;2022-09-01T12:54:51;0.88;;;0.75;;
36253;SDS011;22291;52.250;21.228;2022-09-01T12:57:32;1.10;;;0.65;;
36253;SDS011;22291;52.250;21.228;2022-09-01T13:02:41;0.60;;;0.30;;
36253;SDS011;22291;52.250;21.228;2022-09-01T13:07:57;0.98;;;0.40;;
36253;SDS011;22291;52.250;21.228;2022-09-01T13:10:30;2.75;;;0.45;;
36253;SDS011;22291;52.250;21.228;2022-09-01T13:13:05;1.62;;;0.90;;
36253;SDS011;22291;52.250;21.228;2022-09-01T13:15:33;0.88;;;0.40;;
36253;SDS011;22291;52.250;21.228;2022-09-01T13:18:02;6.37;;;1.90;;
36253;SDS011;22291;52.250;21.228;2022-09-01T13:20:28;1.50;;;0.40;;
36253;SDS011;22291;52.250;21.228;2022-09-01T13:22:55;4.42;;;0.90;;
36253;SDS011;22291;52.250;21.228;2022-09-01T13:25:21;2.47;;;0.90;;
36253;SDS011;22291;52.250;21.228;2022-09-01T13:27:49;2.33;;;0.70;;
36253;SDS011;22291;52.250;21.228;2022-09-01T13:30:18;1.30;;;0.35;;
36253;SDS011;22291;52.250;21.228;2022-09-01T13:32:48;1.52;;;0.50;;
36253;SDS011;22291;52.250;21.228;2022-09-01T13:35:16;4.45;;;0.45;;
36253;SDS011;22291;52.250;21.228;2022-09-01T13:37:45;7.08;;;0.85;;
36253;SDS011;22291;52.250;21.228;2022-09-01T13:40:13;3.83;;;0.70;;
36253;SDS011;22291;52.250;21.228;2022-09-01T13:42:43;4.90;;;0.85;;
36253;SDS011;22291;52.250;21.228;2022-09-01T13:45:12;0.50;;;0.50;;
36253;SDS011;22291;52.250;21.228;2022-09-01T13:47:41;4.15;;;1.00;;
36253;SDS011;22291;52.250;21.228;2022-09-01T13:50:10;1.32;;;0.90;;
36253;SDS011;22291;52.250;21.228;2022-09-01T13:52:40;2.62;;;0.57;;
36253;SDS011;22291;52.250;21.228;2022-09-01T13:55:11;0.62;;;0.50;;
36253;SDS011;22291;52.250;21.228;2022-09-01T13:57:41;8.48;;;0.80;;
36253;SDS011;22291;52.250;21.228;2022-09-01T14:00:09;0.57;;;0.47;;
36253;SDS011;22291;52.250;21.228;2022-09-01T14:02:40;1.12;;;0.33;;
36253;SDS011;22291;52.250;21.228;2022-09-01T14:05:12;2.65;;;0.60;;
36253;SDS011;22291;52.250;21.228;2022-09-01T14:07:39;0.98;;;0.30;;
36253;SDS011;22291;52.250;21.228;2022-09-01T14:10:06;3.72;;;0.33;;
36253;SDS011;22291;52.250;21.228;2022-09-01T14:12:33;1.20;;;0.42;;
36253;SDS011;22291;52.250;21.228;2022-09-01T14:15:00;0.68;;;0.45;;
36253;SDS011;22291;52.250;21.228;2022-09-01T14:17:27;2.55;;;0.42;;
36253;SDS011;22291;52.250;21.228;2022-09-01T14:19:54;9.33;;;5.53;;
36253;SDS011;22291;52.250;21.228;2022-09-01T14:22:24;1.07;;;0.50;;
36253;SDS011;22291;52.250;21.228;2022-09-01T14:24:50;1.00;;;0.30;;
36253;SDS011;22291;52.250;21.228;2022-09-01T14:27:17;2.55;;;0.30;;
36253;SDS011;22291;52.250;21.228;2022-09-01T14:29:47;0.57;;;0.50;;
36253;SDS011;22291;52.250;21.228;2022-09-01T14:32:20;3.27;;;0.50;;
36253;SDS011;22291;52.250;21.228;2022-09-01T14:34:49;2.52;;;0.65;;
36253;SDS011;22291;52.250;21.228;2022-09-01T14:37:15;1.95;;;0.57;;
36253;SDS011;22291;52.250;21.228;2022-09-01T14:39:41;1.50;;;0.30;;
36253;SDS011;22291;52.250;21.228;2022-09-01T14:42:07;1.10;;;0.70;;
36253;SDS011;22291;52.250;21.228;2022-09-01T14:44:36;6.78;;;4.75;;
36253;SDS011;22291;52.250;21.228;2022-09-01T14:47:03;3.20;;;1.10;;
36253;SDS011;22291;52.250;21.228;2022-09-01T14:49:31;7.90;;;3.15;;
36253;SDS011;22291;52.250;21.228;2022-09-01T14:52:00;12.15;;;3.72;;
36253;SDS011;22291;52.250;21.228;2022-09-01T14:54:29;1.77;;;0.98;;
36253;SDS011;22291;52.250;21.228;2022-09-01T14:56:56;0.45;;;0.30;;
36253;SDS011;22291;52.250;21.228;2022-09-01T14:59:22;3.25;;;0.68;;
36253;SDS011;22291;52.250;21.228;2022-09-01T15:01:48;0.57;;;0.30;;
36253;SDS011;22291;52.250;21.228;2022-09-01T15:04:14;1.62;;;0.40;;
36253;SDS011;22291;52.250;21.228;2022-09-01T15:06:40;1.42;;;0.53;;
36253;SDS011;22291;52.250;21.228;2022-09-01T15:09:07;2.02;;;0.33;;
36253;SDS011;22291;52.250;21.228;2022-09-01T15:11:33;0.70;;;0.30;;
36253;SDS011;22291;52.250;21.228;2022-09-01T15:14:00;0.55;;;0.40;;
36253;SDS011;22291;52.250;21.228;2022-09-01T15:16:26;1.60;;;0.40;;
36253;SDS011;22291;52.250;21.228;2022-09-01T15:18:53;0.68;;;0.50;;
36253;SDS011;22291;52.250;21.228;2022-09-01T15:21:26;1.27;;;0.50;;
36253;SDS011;22291;52.250;21.228;2022-09-01T15:23:56;0.85;;;0.65;;
36253;SDS011;22291;52.250;21.228;2022-09-01T15:26:23;4.05;;;0.40;;
36253;SDS011;22291;52.250;21.228;2022-09-01T15:28:50;1.82;;;0.60;;
36253;SDS011;22291;52.250;21.228;2022-09-01T15:31:18;1.10;;;0.30;;
36253;SDS011;22291;52.250;21.228;2022-09-01T15:33:48;0.30;;;0.30;;
36253;SDS011;22291;52.250;21.228;2022-09-01T15:36:18;2.33;;;0.97;;
36253;SDS011;22291;52.250;21.228;2022-09-01T15:38:47;1.02;;;0.50;;
36253;SDS011;22291;52.250;21.228;2022-09-01T15:41:14;1.25;;;0.70;;
36253;SDS011;22291;52.250;21.228;2022-09-01T15:43:50;0.88;;;0.60;;
36253;SDS011;22291;52.250;21.228;2022-09-01T15:46:18;3.45;;;0.70;;
36253;SDS011;22291;52.250;21.228;2022-09-01T15:48:45;1.07;;;0.82;;
36253;SDS011;22291;52.250;21.228;2022-09-01T15:54:06;0.80;;;0.50;;
36253;SDS011;22291;52.250;21.228;2022-09-01T15:56:32;0.62;;;0.30;;
36253;SDS011;22291;52.250;21.228;2022-09-01T15:58:59;1.15;;;0.30;;
36253;SDS011;22291;52.250;21.228;2022-09-01T16:01:29;0.93;;;0.37;;
36253;SDS011;22291;52.250;21.228;2022-09-01T16:04:01;1.27;;;0.40;;
36253;SDS011;22291;52.250;21.228;2022-09-01T16:06:29;1.05;;;0.40;;
36253;SDS011;22291;52.250;21.228;2022-09-01T16:08:55;1.42;;;0.50;;
36253;SDS011;22291;52.250;21.228;2022-09-01T16:11:22;2.05;;;0.50;;
36253;SDS011;22291;52.250;21.228;2022-09-01T16:13:51;1.30;;;0.35;;
36253;SDS011;22291;52.250;21.228;2022-09-01T16:24:41;3.35;;;0.90;;
36253;SDS011;22291;52.250;21.228;2022-09-01T16:27:08;1.65;;;0.40;;
36253;SDS011;22291;52.250;21.228;2022-09-01T16:29:55;1.52;;;0.50;;
36253;SDS011;22291;52.250;21.228;2022-09-01T16:32:34;0.62;;;0.60;;
36253;SDS011;22291;52.250;21.228;2022-09-01T16:35:05;1.55;;;1.10;;
36253;SDS011;22291;52.250;21.228;2022-09-01T16:51:47;3.70;;;1.55;;
36253;SDS011;22291;52.250;21.228;2022-09-01T16:54:15;2.17;;;1.00;;